This is the latest recevied weather packets stored in our database for station/object TVARMINN. If no packets are shown the sender has not sent any weather packets the latest 10 day(s).
| Time | Temp. | Humidity | Pressure | Rain* | Wind** | Luminosity | Snow |
|---|---|---|---|---|---|---|---|
| 1788260673 | 18.33° C | 90% | 1008.7 hPa | 0 mm | - | - | - |
| 1788259473 | 18.89° C | 88% | 1008.5 hPa | 0 mm | - | - | - |
| 1788258273 | 18.89° C | 87% | 1008.6 hPa | 0 mm | - | - | - |
| 1788257072 | 18.33° C | 87% | 1008.6 hPa | 0 mm | - | - | - |
| 1788255875 | 18.33° C | 87% | 1008.6 hPa | 0 mm | - | - | - |
| 1788254674 | 17.78° C | 90% | 1008.5 hPa | 0 mm | - | - | - |
| 1788253473 | 18.33° C | 88% | 1008.4 hPa | 0 mm | - | - | - |
| 1788252273 | 17.78° C | 92% | 1008.5 hPa | 0 mm | - | - | - |
| 1788251073 | 17.78° C | 91% | 1008.5 hPa | 0 mm | - | - | - |
| 1788248671 | 17.78° C | 88% | 1008.2 hPa | 0 mm | - | - | - |
| 1788247473 | 17.78° C | 87% | 1008 hPa | 0 mm | - | - | - |
| 1788246272 | 17.22° C | 88% | 1008 hPa | 0 mm | - | - | - |
| 1788245072 | 16.67° C | 89% | 1008 hPa | 0 mm | - | - | - |
| 1788242672 | 16.67° C | 93% | 1007.9 hPa | 0 mm | - | - | - |
| 1788241472 | 16.67° C | 95% | 1007.9 hPa | 0 mm | - | - | - |
| 1788240272 | 16.67° C | 95% | 1007.9 hPa | 0 mm | - | - | - |
| 1788239072 | 16.67° C | 97% | 1007.8 hPa | 0 mm | - | - | - |
| 1788237873 | 16.67° C | 97% | 1007.8 hPa | 0 mm | - | - | - |
| 1788236671 | 16.11° C | 98% | 1007.7 hPa | 0 mm | - | - | - |
| 1788222274 | 16.11° C | 95% | 1007.9 hPa | 0 mm | - | - | - |
| 1788216271 | 16.11° C | 95% | 1008.1 hPa | 0 mm | - | - | - |
| 1788215071 | 16.11° C | 95% | 1008.2 hPa | 0 mm | - | - | - |
| 1788213872 | 16.11° C | 94% | 1008.2 hPa | 0 mm | - | - | - |
| 1788211471 | 15.56° C | 95% | 1008.2 hPa | 0 mm | - | - | - |
| 1788210272 | 15.56° C | 93% | 1007.9 hPa | 0 mm | - | - | - |
* Rain latest hour (hover to see other rain measurements)
** Current wind speed in m/s (hover to see current wind gust speed)